sensor_id;sensor_type;location;lat;lon;timestamp;pressure;altitude;pressure_sealevel;temperature
45976;BMP280;31696;42.668;23.322;2023-07-20T00:01:33;94380.19;;;23.70
45976;BMP280;31696;42.668;23.322;2023-07-20T00:03:33;94387.47;;;23.69
45976;BMP280;31696;42.668;23.322;2023-07-20T00:05:33;94386.53;;;23.84
45976;BMP280;31696;42.668;23.322;2023-07-20T00:07:34;94383.34;;;23.90
45976;BMP280;31696;42.668;23.322;2023-07-20T00:09:34;94381.59;;;23.73
45976;BMP280;31696;42.668;23.322;2023-07-20T00:11:38;94386.22;;;23.72
45976;BMP280;31696;42.668;23.322;2023-07-20T00:13:39;94388.63;;;23.62
45976;BMP280;31696;42.668;23.322;2023-07-20T00:15:39;94391.13;;;23.56
45976;BMP280;31696;42.668;23.322;2023-07-20T00:17:40;94381.28;;;23.61
45976;BMP280;31696;42.668;23.322;2023-07-20T00:19:41;94386.00;;;23.64
45976;BMP280;31696;42.668;23.322;2023-07-20T00:21:41;94385.03;;;23.77
45976;BMP280;31696;42.668;23.322;2023-07-20T00:23:42;94391.53;;;23.72
45976;BMP280;31696;42.668;23.322;2023-07-20T00:25:43;94394.13;;;23.70
45976;BMP280;31696;42.668;23.322;2023-07-20T00:27:43;94409.06;;;23.85
45976;BMP280;31696;42.668;23.322;2023-07-20T00:29:44;94388.97;;;23.76
45976;BMP280;31696;42.668;23.322;2023-07-20T00:31:44;94388.72;;;23.66
45976;BMP280;31696;42.668;23.322;2023-07-20T00:33:44;94389.84;;;23.59
45976;BMP280;31696;42.668;23.322;2023-07-20T00:35:45;94389.50;;;23.71
45976;BMP280;31696;42.668;23.322;2023-07-20T00:37:45;94393.75;;;23.82
45976;BMP280;31696;42.668;23.322;2023-07-20T00:39:46;94391.56;;;23.74
45976;BMP280;31696;42.668;23.322;2023-07-20T00:41:46;94382.75;;;23.66
45976;BMP280;31696;42.668;23.322;2023-07-20T00:43:46;94387.47;;;23.69
45976;BMP280;31696;42.668;23.322;2023-07-20T00:45:47;94380.69;;;23.64
45976;BMP280;31696;42.668;23.322;2023-07-20T00:47:47;94374.72;;;23.64
45976;BMP280;31696;42.668;23.322;2023-07-20T00:49:48;94375.47;;;23.66
45976;BMP280;31696;42.668;23.322;2023-07-20T00:51:48;94364.88;;;23.66
45976;BMP280;31696;42.668;23.322;2023-07-20T00:53:49;94375.53;;;23.68
45976;BMP280;31696;42.668;23.322;2023-07-20T00:55:50;94370.78;;;23.65
45976;BMP280;31696;42.668;23.322;2023-07-20T00:57:50;94378.81;;;23.67
45976;BMP280;31696;42.668;23.322;2023-07-20T00:59:51;94366.84;;;23.66
45976;BMP280;31696;42.668;23.322;2023-07-20T01:01:51;94363.56;;;23.67
45976;BMP280;31696;42.668;23.322;2023-07-20T01:03:52;94389.16;;;23.59
45976;BMP280;31696;42.668;23.322;2023-07-20T01:07:58;94361.22;;;23.54
45976;BMP280;31696;42.668;23.322;2023-07-20T01:12:13;94376.25;;;23.45
45976;BMP280;31696;42.668;23.322;2023-07-20T01:14:17;94381.53;;;23.45
45976;BMP280;31696;42.668;23.322;2023-07-20T01:16:17;94388.88;;;23.23
45976;BMP280;31696;42.668;23.322;2023-07-20T01:18:18;94392.47;;;23.10
45976;BMP280;31696;42.668;23.322;2023-07-20T01:20:19;94389.22;;;23.11
45976;BMP280;31696;42.668;23.322;2023-07-20T01:33:11;94379.63;;;23.24
45976;BMP280;31696;42.668;23.322;2023-07-20T01:35:14;94378.63;;;23.11
45976;BMP280;31696;42.668;23.322;2023-07-20T01:37:16;94390.25;;;23.00
45976;BMP280;31696;42.668;23.322;2023-07-20T01:39:17;94393.25;;;22.91
45976;BMP280;31696;42.668;23.322;2023-07-20T01:41:18;94390.28;;;22.79
45976;BMP280;31696;42.668;23.322;2023-07-20T01:43:19;94396.66;;;22.93
45976;BMP280;31696;42.668;23.322;2023-07-20T01:45:20;94380.03;;;22.91
45976;BMP280;31696;42.668;23.322;2023-07-20T01:47:20;94384.16;;;22.96
45976;BMP280;31696;42.668;23.322;2023-07-20T01:49:21;94375.34;;;22.89
45976;BMP280;31696;42.668;23.322;2023-07-20T01:51:21;94380.66;;;22.89
45976;BMP280;31696;42.668;23.322;2023-07-20T01:53:22;94380.81;;;22.95
45976;BMP280;31696;42.668;23.322;2023-07-20T01:55:23;94380.97;;;22.78
45976;BMP280;31696;42.668;23.322;2023-07-20T01:57:23;94385.91;;;22.66
45976;BMP280;31696;42.668;23.322;2023-07-20T01:59:24;94381.84;;;22.63
45976;BMP280;31696;42.668;23.322;2023-07-20T02:01:24;94381.84;;;22.63
45976;BMP280;31696;42.668;23.322;2023-07-20T02:03:25;94385.09;;;22.61
45976;BMP280;31696;42.668;23.322;2023-07-20T02:05:26;94371.88;;;22.61
45976;BMP280;31696;42.668;23.322;2023-07-20T02:07:27;94375.19;;;22.62
45976;BMP280;31696;42.668;23.322;2023-07-20T02:09:27;94374.53;;;22.61
45976;BMP280;31696;42.668;23.322;2023-07-20T02:11:27;94368.19;;;22.48
45976;BMP280;31696;42.668;23.322;2023-07-20T02:13:28;94361.03;;;22.31
45976;BMP280;31696;42.668;23.322;2023-07-20T02:15:28;94375.91;;;22.40
45976;BMP280;31696;42.668;23.322;2023-07-20T02:17:29;94370.41;;;22.34
45976;BMP280;31696;42.668;23.322;2023-07-20T02:19:30;94373.25;;;22.40
45976;BMP280;31696;42.668;23.322;2023-07-20T02:21:31;94377.13;;;22.37
45976;BMP280;31696;42.668;23.322;2023-07-20T02:23:31;94371.50;;;22.27
45976;BMP280;31696;42.668;23.322;2023-07-20T02:25:32;94375.38;;;22.24
45976;BMP280;31696;42.668;23.322;2023-07-20T02:27:36;94368.66;;;22.21
45976;BMP280;31696;42.668;23.322;2023-07-20T02:29:37;94373.13;;;21.95
45976;BMP280;31696;42.668;23.322;2023-07-20T02:31:37;94364.50;;;22.14
45976;BMP280;31696;42.668;23.322;2023-07-20T02:33:39;94367.19;;;22.16
45976;BMP280;31696;42.668;23.322;2023-07-20T02:35:40;94365.66;;;22.09
45976;BMP280;31696;42.668;23.322;2023-07-20T02:37:40;94365.03;;;22.11
45976;BMP280;31696;42.668;23.322;2023-07-20T02:39:41;94356.75;;;22.20
45976;BMP280;31696;42.668;23.322;2023-07-20T02:41:41;94358.34;;;22.29
45976;BMP280;31696;42.668;23.322;2023-07-20T02:43:41;94358.28;;;22.27
45976;BMP280;31696;42.668;23.322;2023-07-20T02:45:43;94354.41;;;22.30
45976;BMP280;31696;42.668;23.322;2023-07-20T02:47:43;94367.75;;;22.13
45976;BMP280;31696;42.668;23.322;2023-07-20T02:49:44;94342.56;;;21.90
45976;BMP280;31696;42.668;23.322;2023-07-20T02:51:44;94342.41;;;21.86
45976;BMP280;31696;42.668;23.322;2023-07-20T02:53:44;94338.38;;;21.83
45976;BMP280;31696;42.668;23.322;2023-07-20T02:55:45;94344.84;;;21.80
45976;BMP280;31696;42.668;23.322;2023-07-20T02:57:46;94348.81;;;21.79
45976;BMP280;31696;42.668;23.322;2023-07-20T02:59:46;94337.69;;;21.83
45976;BMP280;31696;42.668;23.322;2023-07-20T03:01:46;94350.63;;;21.74
45976;BMP280;31696;42.668;23.322;2023-07-20T03:03:47;94349.34;;;21.75
45976;BMP280;31696;42.668;23.322;2023-07-20T03:05:50;94342.41;;;21.86
45976;BMP280;31696;42.668;23.322;2023-07-20T03:07:55;94350.28;;;21.64
45976;BMP280;31696;42.668;23.322;2023-07-20T03:09:55;94351.47;;;21.79
45976;BMP280;31696;42.668;23.322;2023-07-20T03:11:56;94351.38;;;21.77
45976;BMP280;31696;42.668;23.322;2023-07-20T03:13:56;94354.69;;;21.77
45976;BMP280;31696;42.668;23.322;2023-07-20T03:15:57;94351.50;;;21.81
45976;BMP280;31696;42.668;23.322;2023-07-20T03:17:58;94354.09;;;21.79
45976;BMP280;31696;42.668;23.322;2023-07-20T03:19:59;94363.19;;;21.74
45976;BMP280;31696;42.668;23.322;2023-07-20T03:21:59;94363.50;;;21.84
45976;BMP280;31696;42.668;23.322;2023-07-20T03:24:00;94359.78;;;21.91
45976;BMP280;31696;42.668;23.322;2023-07-20T03:26:00;94366.41;;;21.92
45976;BMP280;31696;42.668;23.322;2023-07-20T03:28:01;94358.97;;;21.87
45976;BMP280;31696;42.668;23.322;2023-07-20T03:30:02;94367.84;;;21.75
45976;BMP280;31696;42.668;23.322;2023-07-20T03:32:03;94366.00;;;21.80
45976;BMP280;31696;42.668;23.322;2023-07-20T03:34:03;94367.09;;;21.93
45976;BMP280;31696;42.668;23.322;2023-07-20T03:36:05;94367.47;;;21.85
45976;BMP280;31696;42.668;23.322;2023-07-20T03:38:05;94364.72;;;21.81
45976;BMP280;31696;42.668;23.322;2023-07-20T03:40:06;94370.56;;;21.58
45976;BMP280;31696;42.668;23.322;2023-07-20T03:42:07;94368.19;;;21.66
45976;BMP280;31696;42.668;23.322;2023-07-20T03:44:08;94369.81;;;21.75
45976;BMP280;31696;42.668;23.322;2023-07-20T03:46:08;94367.63;;;21.69
45976;BMP280;31696;42.668;23.322;2023-07-20T03:48:08;94366.81;;;21.65
45976;BMP280;31696;42.668;23.322;2023-07-20T03:50:09;94379.03;;;21.74
45976;BMP280;31696;42.668;23.322;2023-07-20T03:52:10;94373.13;;;21.75
45976;BMP280;31696;42.668;23.322;2023-07-20T03:54:10;94377.94;;;21.81
45976;BMP280;31696;42.668;23.322;2023-07-20T03:56:11;94373.41;;;21.84
45976;BMP280;31696;42.668;23.322;2023-07-20T03:58:12;94376.28;;;21.92
45976;BMP280;31696;42.668;23.322;2023-07-20T04:00:13;94390.25;;;21.74
45976;BMP280;31696;42.668;23.322;2023-07-20T04:02:14;94388.72;;;21.67
45976;BMP280;31696;42.668;23.322;2023-07-20T04:04:16;94383.91;;;21.81
45976;BMP280;31696;42.668;23.322;2023-07-20T04:06:17;94377.78;;;21.97
45976;BMP280;31696;42.668;23.322;2023-07-20T04:08:17;94368.22;;;22.07
45976;BMP280;31696;42.668;23.322;2023-07-20T04:10:18;94360.28;;;22.07
45976;BMP280;31696;42.668;23.322;2023-07-20T04:12:19;94360.06;;;21.99
45976;BMP280;31696;42.668;23.322;2023-07-20T04:14:19;94374.53;;;21.98
45976;BMP280;31696;42.668;23.322;2023-07-20T04:16:20;94391.41;;;21.89
45976;BMP280;31696;42.668;23.322;2023-07-20T04:18:20;94361.38;;;21.80
45976;BMP280;31696;42.668;23.322;2023-07-20T04:20:21;94362.72;;;22.01
45976;BMP280;31696;42.668;23.322;2023-07-20T04:22:22;94358.94;;;22.06
45976;BMP280;31696;42.668;23.322;2023-07-20T04:24:23;94354.34;;;22.28
45976;BMP280;31696;42.668;23.322;2023-07-20T04:26:23;94353.53;;;22.02
45976;BMP280;31696;42.668;23.322;2023-07-20T04:28:24;94347.22;;;21.92
45976;BMP280;31696;42.668;23.322;2023-07-20T04:30:24;94346.69;;;21.95
45976;BMP280;31696;42.668;23.322;2023-07-20T04:32:25;94353.19;;;22.33
45976;BMP280;31696;42.668;23.322;2023-07-20T04:34:26;94351.03;;;22.28
45976;BMP280;31696;42.668;23.322;2023-07-20T04:36:26;94360.69;;;22.19
45976;BMP280;31696;42.668;23.322;2023-07-20T04:38:28;94347.06;;;22.07
45976;BMP280;31696;42.668;23.322;2023-07-20T04:40:49;94352.88;;;22.23
45976;BMP280;31696;42.668;23.322;2023-07-20T04:42:50;94341.19;;;22.30
45976;BMP280;31696;42.668;23.322;2023-07-20T04:44:51;94348.06;;;22.39
45976;BMP280;31696;42.668;23.322;2023-07-20T04:46:51;94346.81;;;22.40
45976;BMP280;31696;42.668;23.322;2023-07-20T04:48:52;94348.03;;;22.37
45976;BMP280;31696;42.668;23.322;2023-07-20T04:50:53;94344.94;;;22.23
45976;BMP280;31696;42.668;23.322;2023-07-20T04:52:54;94345.72;;;22.06
45976;BMP280;31696;42.668;23.322;2023-07-20T04:54:55;94345.56;;;22.43
45976;BMP280;31696;42.668;23.322;2023-07-20T04:56:56;94358.97;;;22.49
45976;BMP280;31696;42.668;23.322;2023-07-20T04:58:57;94342.63;;;22.57
45976;BMP280;31696;42.668;23.322;2023-07-20T05:00:57;94345.28;;;22.79
45976;BMP280;31696;42.668;23.322;2023-07-20T05:02:57;94341.97;;;22.56
45976;BMP280;31696;42.668;23.322;2023-07-20T05:04:58;94342.53;;;22.53
45976;BMP280;31696;42.668;23.322;2023-07-20T05:06:58;94341.34;;;22.58
45976;BMP280;31696;42.668;23.322;2023-07-20T05:08:59;94342.84;;;22.63
45976;BMP280;31696;42.668;23.322;2023-07-20T05:10:59;94343.50;;;22.64
45976;BMP280;31696;42.668;23.322;2023-07-20T05:13:00;94341.31;;;22.80
45976;BMP280;31696;42.668;23.322;2023-07-20T05:15:00;94352.13;;;22.88
45976;BMP280;31696;42.668;23.322;2023-07-20T05:17:00;94349.66;;;22.70
45976;BMP280;31696;42.668;23.322;2023-07-20T05:19:01;94349.91;;;22.56
45976;BMP280;31696;42.668;23.322;2023-07-20T05:21:02;94350.75;;;22.85
45976;BMP280;31696;42.668;23.322;2023-07-20T05:23:02;94349.84;;;22.76
45976;BMP280;31696;42.668;23.322;2023-07-20T05:25:02;94352.50;;;23.00
45976;BMP280;31696;42.668;23.322;2023-07-20T05:27:03;94346.69;;;23.05
45976;BMP280;31696;42.668;23.322;2023-07-20T05:29:03;94356.59;;;23.54
45976;BMP280;31696;42.668;23.322;2023-07-20T05:31:04;94350.41;;;23.71
45976;BMP280;31696;42.668;23.322;2023-07-20T05:33:04;94363.34;;;23.33
45976;BMP280;31696;42.668;23.322;2023-07-20T05:35:05;94360.59;;;23.55
45976;BMP280;31696;42.668;23.322;2023-07-20T05:37:05;94355.53;;;23.63
45976;BMP280;31696;42.668;23.322;2023-07-20T05:39:06;94350.84;;;23.89
45976;BMP280;31696;42.668;23.322;2023-07-20T05:41:06;94353.69;;;23.70
45976;BMP280;31696;42.668;23.322;2023-07-20T05:43:10;94365.66;;;23.71
45976;BMP280;31696;42.668;23.322;2023-07-20T05:45:11;94368.38;;;23.75
45976;BMP280;31696;42.668;23.322;2023-07-20T05:47:11;94364.69;;;23.60
45976;BMP280;31696;42.668;23.322;2023-07-20T05:49:12;94370.84;;;23.67
45976;BMP280;31696;42.668;23.322;2023-07-20T05:51:12;94376.84;;;23.69
45976;BMP280;31696;42.668;23.322;2023-07-20T05:53:12;94370.41;;;23.76
45976;BMP280;31696;42.668;23.322;2023-07-20T05:55:13;94364.59;;;24.37
45976;BMP280;31696;42.668;23.322;2023-07-20T05:57:13;94371.53;;;24.23
45976;BMP280;31696;42.668;23.322;2023-07-20T05:59:13;94374.16;;;24.50
45976;BMP280;31696;42.668;23.322;2023-07-20T06:01:14;94383.25;;;24.73
45976;BMP280;31696;42.668;23.322;2023-07-20T06:03:15;94358.63;;;25.00
45976;BMP280;31696;42.668;23.322;2023-07-20T06:05:16;94361.94;;;25.01
45976;BMP280;31696;42.668;23.322;2023-07-20T06:07:16;94362.03;;;25.40
45976;BMP280;31696;42.668;23.322;2023-07-20T06:09:17;94358.75;;;25.81
45976;BMP280;31696;42.668;23.322;2023-07-20T06:11:17;94359.75;;;25.62
45976;BMP280;31696;42.668;23.322;2023-07-20T06:13:18;94354.50;;;26.54
45976;BMP280;31696;42.668;23.322;2023-07-20T06:15:25;94368.31;;;26.92
45976;BMP280;31696;42.668;23.322;2023-07-20T06:17:26;94375.88;;;26.60
45976;BMP280;31696;42.668;23.322;2023-07-20T06:19:26;94361.91;;;27.15
45976;BMP280;31696;42.668;23.322;2023-07-20T06:21:27;94354.28;;;27.49
45976;BMP280;31696;42.668;23.322;2023-07-20T06:23:27;94350.28;;;27.52
45976;BMP280;31696;42.668;23.322;2023-07-20T06:25:28;94349.44;;;28.14
45976;BMP280;31696;42.668;23.322;2023-07-20T06:27:28;94341.88;;;27.84
45976;BMP280;31696;42.668;23.322;2023-07-20T06:29:28;94343.50;;;28.27
45976;BMP280;31696;42.668;23.322;2023-07-20T06:31:29;94333.59;;;28.50
45976;BMP280;31696;42.668;23.322;2023-07-20T06:33:29;94341.81;;;29.04
45976;BMP280;31696;42.668;23.322;2023-07-20T06:35:30;94349.91;;;29.38
45976;BMP280;31696;42.668;23.322;2023-07-20T06:37:30;94345.94;;;29.58
45976;BMP280;31696;42.668;23.322;2023-07-20T06:39:30;94352.63;;;29.46
45976;BMP280;31696;42.668;23.322;2023-07-20T06:41:31;94336.56;;;29.48
45976;BMP280;31696;42.668;23.322;2023-07-20T06:43:31;94347.25;;;30.01
45976;BMP280;31696;42.668;23.322;2023-07-20T06:45:31;94363.28;;;30.11
45976;BMP280;31696;42.668;23.322;2023-07-20T06:47:32;94352.63;;;29.63
45976;BMP280;31696;42.668;23.322;2023-07-20T06:49:32;94351.19;;;30.40
45976;BMP280;31696;42.668;23.322;2023-07-20T06:51:33;94355.13;;;30.57
45976;BMP280;31696;42.668;23.322;2023-07-20T06:53:33;94343.00;;;30.78
45976;BMP280;31696;42.668;23.322;2023-07-20T06:55:33;94349.03;;;30.79
45976;BMP280;31696;42.668;23.322;2023-07-20T06:57:34;94349.63;;;30.89
45976;BMP280;31696;42.668;23.322;2023-07-20T06:59:34;94367.03;;;30.92
45976;BMP280;31696;42.668;23.322;2023-07-20T07:01:34;94363.19;;;30.53
45976;BMP280;31696;42.668;23.322;2023-07-20T07:03:35;94369.31;;;31.56
45976;BMP280;31696;42.668;23.322;2023-07-20T07:05:36;94373.44;;;31.47
45976;BMP280;31696;42.668;23.322;2023-07-20T07:07:37;94374.63;;;30.21
45976;BMP280;31696;42.668;23.322;2023-07-20T07:09:37;94373.31;;;29.32
45976;BMP280;31696;42.668;23.322;2023-07-20T07:11:38;94376.59;;;29.12
45976;BMP280;31696;42.668;23.322;2023-07-20T07:13:38;94376.44;;;28.74
45976;BMP280;31696;42.668;23.322;2023-07-20T07:15:38;94381.06;;;28.58
45976;BMP280;31696;42.668;23.322;2023-07-20T07:17:39;94395.03;;;28.50
45976;BMP280;31696;42.668;23.322;2023-07-20T07:19:39;94405.69;;;28.48
45976;BMP280;31696;42.668;23.322;2023-07-20T07:21:40;94421.25;;;28.86
45976;BMP280;31696;42.668;23.322;2023-07-20T07:23:41;94416.75;;;29.32
45976;BMP280;31696;42.668;23.322;2023-07-20T07:25:41;94412.81;;;29.72
45976;BMP280;31696;42.668;23.322;2023-07-20T07:27:42;94415.50;;;29.72
45976;BMP280;31696;42.668;23.322;2023-07-20T07:29:42;94410.81;;;29.92
45976;BMP280;31696;42.668;23.322;2023-07-20T07:31:45;94412.78;;;30.24
45976;BMP280;31696;42.668;23.322;2023-07-20T07:33:45;94411.47;;;30.11
45976;BMP280;31696;42.668;23.322;2023-07-20T07:35:46;94403.44;;;30.03
45976;BMP280;31696;42.668;23.322;2023-07-20T07:37:46;94395.41;;;30.13
45976;BMP280;31696;42.668;23.322;2023-07-20T07:39:47;94394.06;;;30.06
45976;BMP280;31696;42.668;23.322;2023-07-20T07:41:47;94388.72;;;29.96
45976;BMP280;31696;42.668;23.322;2023-07-20T07:43:48;94398.03;;;30.39
45976;BMP280;31696;42.668;23.322;2023-07-20T07:45:48;94397.97;;;30.63
45976;BMP280;31696;42.668;23.322;2023-07-20T07:47:48;94392.59;;;30.67
45976;BMP280;31696;42.668;23.322;2023-07-20T07:49:49;94388.47;;;30.96
45976;BMP280;31696;42.668;23.322;2023-07-20T07:51:50;94364.41;;;30.86
45976;BMP280;31696;42.668;23.322;2023-07-20T07:53:50;94345.09;;;30.66
45976;BMP280;31696;42.668;23.322;2023-07-20T07:55:50;94349.09;;;30.65
45976;BMP280;31696;42.668;23.322;2023-07-20T07:57:51;94357.81;;;30.57
45976;BMP280;31696;42.668;23.322;2023-07-20T07:59:51;94371.78;;;30.84
45976;BMP280;31696;42.668;23.322;2023-07-20T08:01:51;94361.75;;;30.74
45976;BMP280;31696;42.668;23.322;2023-07-20T08:03:52;94355.00;;;30.85
45976;BMP280;31696;42.668;23.322;2023-07-20T08:05:54;94372.91;;;31.21
45976;BMP280;31696;42.668;23.322;2023-07-20T08:07:55;94388.38;;;31.16
45976;BMP280;31696;42.668;23.322;2023-07-20T08:09:55;94393.56;;;31.42
45976;BMP280;31696;42.668;23.322;2023-07-20T08:11:56;94415.06;;;31.34
45976;BMP280;31696;42.668;23.322;2023-07-20T08:13:56;94412.56;;;31.02
45976;BMP280;31696;42.668;23.322;2023-07-20T08:15:57;94416.59;;;31.01
45976;BMP280;31696;42.668;23.322;2023-07-20T08:17:57;94406.50;;;31.12
45976;BMP280;31696;42.668;23.322;2023-07-20T08:19:58;94409.81;;;31.20
45976;BMP280;31696;42.668;23.322;2023-07-20T08:21:58;94417.84;;;31.22
45976;BMP280;31696;42.668;23.322;2023-07-20T08:23:59;94413.84;;;31.13
45976;BMP280;31696;42.668;23.322;2023-07-20T08:25:59;94421.94;;;31.05
45976;BMP280;31696;42.668;23.322;2023-07-20T08:28:00;94413.94;;;30.97
45976;BMP280;31696;42.668;23.322;2023-07-20T08:30:02;94424.69;;;30.91
45976;BMP280;31696;42.668;23.322;2023-07-20T08:32:04;94417.88;;;31.10
45976;BMP280;31696;42.668;23.322;2023-07-20T08:34:05;94413.88;;;31.07
45976;BMP280;31696;42.668;23.322;2023-07-20T08:36:05;94431.34;;;31.00
45976;BMP280;31696;42.668;23.322;2023-07-20T08:38:06;94420.63;;;31.00
45976;BMP280;31696;42.668;23.322;2023-07-20T08:40:07;94416.63;;;30.91
45976;BMP280;31696;42.668;23.322;2023-07-20T08:42:09;94413.94;;;30.95
45976;BMP280;31696;42.668;23.322;2023-07-20T08:44:10;94418.00;;;30.86
45976;BMP280;31696;42.668;23.322;2023-07-20T08:46:11;94411.25;;;31.01
45976;BMP280;31696;42.668;23.322;2023-07-20T08:48:12;94408.59;;;30.95
45976;BMP280;31696;42.668;23.322;2023-07-20T08:50:13;94407.78;;;31.21
45976;BMP280;31696;42.668;23.322;2023-07-20T08:52:14;94407.22;;;31.02
45976;BMP280;31696;42.668;23.322;2023-07-20T08:54:14;94409.09;;;31.18
45976;BMP280;31696;42.668;23.322;2023-07-20T08:56:16;94400.56;;;30.85
45976;BMP280;31696;42.668;23.322;2023-07-20T08:58:18;94401.84;;;31.06
45976;BMP280;31696;42.668;23.322;2023-07-20T09:00:19;94400.56;;;30.89
45976;BMP280;31696;42.668;23.322;2023-07-20T09:02:20;94389.81;;;30.93
45976;BMP280;31696;42.668;23.322;2023-07-20T09:04:23;94387.13;;;31.01
45976;BMP280;31696;42.668;23.322;2023-07-20T09:06:23;94381.09;;;30.95
45976;BMP280;31696;42.668;23.322;2023-07-20T09:08:24;94391.13;;;31.02
45976;BMP280;31696;42.668;23.322;2023-07-20T09:10:24;94385.78;;;30.96
45976;BMP280;31696;42.668;23.322;2023-07-20T09:12:25;94387.13;;;30.95
45976;BMP280;31696;42.668;23.322;2023-07-20T09:14:25;94387.13;;;30.97
45976;BMP280;31696;42.668;23.322;2023-07-20T09:16:26;94385.75;;;31.02
45976;BMP280;31696;42.668;23.322;2023-07-20T09:18:27;94381.75;;;30.99
45976;BMP280;31696;42.668;23.322;2023-07-20T09:20:27;94384.31;;;31.19
45976;BMP280;31696;42.668;23.322;2023-07-20T09:22:31;94370.84;;;31.31
45976;BMP280;31696;42.668;23.322;2023-07-20T09:24:32;94374.38;;;31.00
45976;BMP280;31696;42.668;23.322;2023-07-20T09:26:32;94367.72;;;30.95
45976;BMP280;31696;42.668;23.322;2023-07-20T09:28:43;94375.09;;;30.90
45976;BMP280;31696;42.668;23.322;2023-07-20T09:30:44;94369.66;;;31.06
45976;BMP280;31696;42.668;23.322;2023-07-20T09:32:45;94360.44;;;30.75
45976;BMP280;31696;42.668;23.322;2023-07-20T09:34:46;94372.41;;;30.88
45976;BMP280;31696;42.668;23.322;2023-07-20T09:36:46;94371.75;;;30.90
45976;BMP280;31696;42.668;23.322;2023-07-20T09:38:47;94365.81;;;30.67
45976;BMP280;31696;42.668;23.322;2023-07-20T09:40:47;94372.41;;;30.88
45976;BMP280;31696;42.668;23.322;2023-07-20T09:42:47;94367.22;;;30.48
45976;BMP280;31696;42.668;23.322;2023-07-20T09:44:48;94353.78;;;30.62
45976;BMP280;31696;42.668;23.322;2023-07-20T09:46:49;94352.41;;;30.63
45976;BMP280;31696;42.668;23.322;2023-07-20T09:48:52;94356.53;;;30.44
45976;BMP280;31696;42.668;23.322;2023-07-20T09:50:56;94356.41;;;30.74
45976;BMP280;31696;42.668;23.322;2023-07-20T09:52:56;94348.38;;;30.76
45976;BMP280;31696;42.668;23.322;2023-07-20T09:54:57;94336.28;;;30.77
45976;BMP280;31696;42.668;23.322;2023-07-20T09:56:57;94342.25;;;30.92
45976;BMP280;31696;42.668;23.322;2023-07-20T09:58:58;94326.19;;;30.90
45976;BMP280;31696;42.668;23.322;2023-07-20T10:00:59;94318.88;;;30.80
45976;BMP280;31696;42.668;23.322;2023-07-20T10:03:03;94328.34;;;30.57
45976;BMP280;31696;42.668;23.322;2023-07-20T10:05:03;94324.31;;;30.60
45976;BMP280;31696;42.668;23.322;2023-07-20T10:07:05;94328.41;;;30.41
45976;BMP280;31696;42.668;23.322;2023-07-20T10:09:07;94323.13;;;30.25
45976;BMP280;31696;42.668;23.322;2023-07-20T10:11:10;94331.81;;;30.17
45976;BMP280;31696;42.668;23.322;2023-07-20T10:13:16;94333.19;;;30.10
45976;BMP280;31696;42.668;23.322;2023-07-20T10:15:20;94330.53;;;29.90
45976;BMP280;31696;42.668;23.322;2023-07-20T10:17:23;94335.22;;;29.74
45976;BMP280;31696;42.668;23.322;2023-07-20T10:19:38;94335.25;;;29.80
45976;BMP280;31696;42.668;23.322;2023-07-20T10:21:40;94329.88;;;29.80
45976;BMP280;31696;42.668;23.322;2023-07-20T10:23:41;94343.91;;;29.82
45976;BMP280;31696;42.668;23.322;2023-07-20T10:25:42;94349.94;;;29.81
45976;BMP280;31696;42.668;23.322;2023-07-20T10:27:43;94352.63;;;29.85
45976;BMP280;31696;42.668;23.322;2023-07-20T10:29:43;94340.56;;;29.82
45976;BMP280;31696;42.668;23.322;2023-07-20T10:31:44;94328.53;;;29.73
45976;BMP280;31696;42.668;23.322;2023-07-20T10:33:44;94316.53;;;29.70
45976;BMP280;31696;42.668;23.322;2023-07-20T10:35:55;94319.19;;;29.72
45976;BMP280;31696;42.668;23.322;2023-07-20T10:38:02;94323.22;;;29.75
45976;BMP280;31696;42.668;23.322;2023-07-20T10:42:21;94329.91;;;29.64
45976;BMP280;31696;42.668;23.322;2023-07-20T10:44:21;94339.25;;;29.63
45976;BMP280;31696;42.668;23.322;2023-07-20T10:47:09;94293.78;;;29.56
45976;BMP280;31696;42.668;23.322;2023-07-20T10:48:59;94257.00;;;29.47
45976;BMP280;31696;42.668;23.322;2023-07-20T10:51:10;94242.97;;;29.42
45976;BMP280;31696;42.668;23.322;2023-07-20T10:53:14;94282.44;;;29.34
45976;BMP280;31696;42.668;23.322;2023-07-20T10:55:16;94303.13;;;29.35
45976;BMP280;31696;42.668;23.322;2023-07-20T10:57:24;94297.78;;;29.47
45976;BMP280;31696;42.668;23.322;2023-07-20T11:01:28;94263.00;;;29.66
45976;BMP280;31696;42.668;23.322;2023-07-20T11:03:30;94280.38;;;29.71
45976;BMP280;31696;42.668;23.322;2023-07-20T11:05:35;94268.38;;;29.70
45976;BMP280;31696;42.668;23.322;2023-07-20T11:07:36;94261.66;;;29.71
45976;BMP280;31696;42.668;23.322;2023-07-20T11:09:38;94248.94;;;29.75
45976;BMP280;31696;42.668;23.322;2023-07-20T11:11:38;94242.91;;;29.83
45976;BMP280;31696;42.668;23.322;2023-07-20T11:13:39;94253.63;;;29.77
45976;BMP280;31696;42.668;23.322;2023-07-20T11:18:10;94253.56;;;29.97
45976;BMP280;31696;42.668;23.322;2023-07-20T11:20:10;94250.91;;;29.93
45976;BMP280;31696;42.668;23.322;2023-07-20T11:22:12;94254.28;;;29.95
45976;BMP280;31696;42.668;23.322;2023-07-20T11:24:13;94248.22;;;29.97
45976;BMP280;31696;42.668;23.322;2023-07-20T11:26:13;94251.53;;;30.07
45976;BMP280;31696;42.668;23.322;2023-07-20T11:28:15;94245.56;;;29.97
45976;BMP280;31696;42.668;23.322;2023-07-20T11:30:16;94238.22;;;29.87
45976;BMP280;31696;42.668;23.322;2023-07-20T11:32:20;94244.19;;;30.02
45976;BMP280;31696;42.668;23.322;2023-07-20T11:34:20;94234.78;;;30.21
45976;BMP280;31696;42.668;23.322;2023-07-20T11:36:21;94233.41;;;30.30
45976;BMP280;31696;42.668;23.322;2023-07-20T11:38:21;94227.28;;;30.47
45976;BMP280;31696;42.668;23.322;2023-07-20T11:40:23;94226.59;;;30.47
45976;BMP280;31696;42.668;23.322;2023-07-20T11:42:24;94223.97;;;30.41
45976;BMP280;31696;42.668;23.322;2023-07-20T11:44:25;94217.25;;;30.48
45976;BMP280;31696;42.668;23.322;2023-07-20T11:46:29;94221.25;;;30.47
45976;BMP280;31696;42.668;23.322;2023-07-20T11:48:29;94211.81;;;30.58
45976;BMP280;31696;42.668;23.322;2023-07-20T11:50:30;94215.94;;;30.45